• Join FlightAware (Why Join?)
  • Login
  • US Flag GB Flag 
02:31 EST


 

Airport Tracker/Info


-or-


 

Live Flight TrackerFlight Track Log ✈ DAL1578 ✈ 07-Apr-2013 ✈ KATL - KMHT

Flight Track Log - Related Links

Times and Time Zones

All times are in EDT time to prevent confusion due to time zone crossing. See the DAL1578 flight status page for this flight to view local times or setup timezone preferences in your user account.

Time Position Orientation Groundspeed Altitude Reporting Facility
EDT Latitude Longitude Course Direction KTS MPH feet Rate Location/Type
18:47 33.6497 -84.3633 North 456 525 3,100  Level Atlanta Center
18:48 33.6500 -84.3333 89° East 227 261 3,800 2,430 Climbing Atlanta TRACON
18:49 33.6833 -84.2500 64° Northeast 290 334 6,300 3,000 Climbing Atlanta TRACON
18:50 33.7667 -84.2500 360° North 289 333 9,500 1,938 Climbing Atlanta TRACON
18:51 33.9256 -84.2617 357° North 353 406 11,500 1,789 Climbing Atlanta Center
18:52 34.0278 -84.2669 358° North 363 418 14,300 2,876 Climbing Atlanta Center
18:53 34.1873 -84.2667 North  Level FlightAware Approximate
18:53 34.1281 -84.2672 360° North 363 418 17,300  Level Atlanta Center
18:54 34.2428 -84.2397 11° North 391 450 19,300 2,050 Climbing Atlanta Center
18:55 34.3556 -84.2175 North 399 459 21,400 2,200 Climbing Atlanta Center
18:56 34.4725 -84.1925 10° North 419 482 23,700 2,017 Climbing Atlanta Center
18:57 34.5914 -84.1700 North 427 491 25,400 1,587 Climbing Atlanta Center
18:58 34.7106 -84.1475 North 427 491 26,900 1,600 Climbing Atlanta Center
18:59 34.8356 -84.1197 10° North 432 497 28,600 1,563 Climbing Atlanta Center
19:00 34.9631 -84.0944 North 438 504 30,000 1,400 Climbing Atlanta Center
19:01 35.0881 -84.0667 10° North 458 527 31,400 1,388 Climbing Atlanta Center
19:02 35.2175 -84.0414 North 463 533 32,800 1,388 Climbing Atlanta Center
19:03 35.3428 -84.0133 10° North 463 533 34,200 1,462 Climbing Atlanta Center
19:04 35.4658 -83.9878 10° North 463 533 35,700 1,311 Climbing Atlanta Center
19:05 35.5889 -83.9622 10° North 451 519 36,800 650 Climbing Atlanta Center
19:06 35.7100 -83.9364 10° North 446 513 37,000 100 Climbing Atlanta Center
19:07 35.8350 -83.9106 10° North 446 513 37,000  Level Atlanta Center
19:08 35.9539 -83.8642 18° North 446 513 37,000  Level Atlanta Center
19:09 36.0683 -83.7922 27° Northeast 446 513 37,000  Level Atlanta Center
19:10 36.1831 -83.7222 26° Northeast 451 519 37,000  Level Atlanta Center
19:12 36.4125 -83.5728 28° Northeast 464 534 37,000  Level Indianapolis Center
19:14 36.5317 -83.5011 26° Northeast 462 532 37,000  Level Indianapolis Center
19:15 36.6519 -83.4397 22° Northeast 462 532 37,000  Level Indianapolis Center
19:16 36.7725 -83.3769 23° Northeast 465 535 37,000  Level Indianapolis Center
19:17 36.8933 -83.3153 22° Northeast 464 534 37,000  Level Indianapolis Center
19:18 37.0342 -83.2414 23° Northeast 465 535 37,000  Level Indianapolis Center
19:19 37.1539 -83.1683 26° Northeast 474 545 37,000  Level Indianapolis Center
19:20 37.2531 -83.0483 44° Northeast 488 562 37,000  Level Indianapolis Center
19:21 37.3494 -82.9250 45° Northeast 489 563 37,000  Level Indianapolis Center
19:22 37.4453 -82.8014 46° Northeast 491 565 37,000  Level Indianapolis Center
19:23 37.5403 -82.6778 46° Northeast 491 565 37,000  Level Indianapolis Center
19:24 37.6356 -82.5553 45° Northeast 488 562 37,000  Level Indianapolis Center
19:25 37.7306 -82.4311 46° Northeast 488 562 37,000  Level Indianapolis Center
19:26 37.8403 -82.2883 46° Northeast 483 556 37,000  Level Indianapolis Center
19:27 37.9344 -82.1669 45° Northeast 485 558 37,000  Level Indianapolis Center
19:28 38.0272 -82.0456 46° Northeast 490 564 37,000  Level Indianapolis Center
19:29 38.1211 -81.9225 46° Northeast 487 560 37,000  Level Indianapolis Center
19:30 38.2150 -81.7989 46° Northeast 487 560 37,000  Level Indianapolis Center
19:31 38.3069 -81.6742 47° Northeast 485 558 37,000  Level Indianapolis Center
19:32 38.3997 -81.5500 46° Northeast 487 560 37,000  Level Indianapolis Center
19:33 38.5111 -81.4022 46° Northeast 488 562 37,000  Level Indianapolis Center
19:34 38.6025 -81.2786 47° Northeast 488 562 37,000  Level Indianapolis Center
19:35 38.6944 -81.1544 46° Northeast 489 563 37,000  Level Indianapolis Center
19:36 38.7875 -81.0278 47° Northeast 491 565 37,000  Level Indianapolis Center
19:37 38.8803 -80.9006 47° Northeast 491 565 37,000  Level Indianapolis Center
19:38 38.9942 -80.7458 47° Northeast 495 570 37,000  Level Indianapolis Center
19:39 39.0869 -80.6186 47° Northeast 491 565 37,000  Level Indianapolis Center
19:40 39.1794 -80.4889 47° Northeast 491 565 37,000  Level Indianapolis Center
19:41 39.2731 -80.3603 47° Northeast 491 565 37,000  Level Indianapolis Center
19:42 39.3622 -80.2422 46° Northeast 491 565 37,000  Level Cleveland Center
19:43 39.4556 -80.1153 46° Northeast 486 559 37,000  Level Cleveland Center
19:44 39.5486 -79.9828 48° Northeast 486 559 37,000  Level Cleveland Center
19:45 39.6500 -79.8389 48° Northeast 486 559 37,000  Level Cleveland Center
19:46 39.7428 -79.7056 48° Northeast 493 567 37,000  Level Cleveland Center
19:47 39.8375 -79.5747 47° Northeast 493 567 37,000  Level Cleveland Center
19:48 39.9300 -79.4406 48° Northeast 493 567 37,000  Level Cleveland Center
19:49 40.0244 -79.3061 47° Northeast 493 567 37,000  Level Cleveland Center
19:50 40.1044 -79.1853 49° Northeast 488 562 37,000  Level Cleveland Center
19:51 40.1986 -79.0500 48° Northeast 488 562 37,000  Level Cleveland Center
19:52 40.2906 -78.9172 48° Northeast 493 567 37,000  Level Cleveland Center
19:53 40.3844 -78.7786 48° Northeast 498 573 37,000  Level Cleveland Center
19:54 40.4761 -78.6453 48° Northeast 498 573 37,000  Level Cleveland Center
19:58 40.8567 -78.0778 48° Northeast 497 572 37,000  Level New York Center
19:59 40.9425 -77.9358 51° Northeast 497 572 37,000  Level New York Center
20:00 41.0144 -77.7811 58° Northeast 491 565 37,000  Level New York Center
20:01 41.0861 -77.6233 59° Northeast 491 565 37,000  Level New York Center
20:02 41.1572 -77.4706 58° Northeast 491 565 37,000  Level New York Center
20:03 41.2353 -77.3044 58° Northeast 486 559 37,000  Level New York Center
20:04 41.3086 -77.1458 58° Northeast 486 559 37,000  Level New York Center
20:05 41.3794 -76.9867 59° Northeast 491 565 37,000  Level New York Center
20:07 41.5114 -76.7017 58° Northeast 498 573 37,000  Level Boston Center
20:08 41.5839 -76.5425 59° Northeast 498 573 37,000  Level Boston Center
20:09 41.6406 -76.4156 59° Northeast 498 573 37,000  Level Boston Center
20:10 41.7267 -76.2181 60° Northeast 498 573 37,000  Level Boston Center
20:11 41.8033 -76.0414 60° Northeast 493 567 37,000  Level Boston Center
20:12 41.8731 -75.8781 60° Northeast 493 567 37,000  Level Boston Center
20:13 41.9444 -75.7144 60° Northeast 493 567 37,000  Level Boston Center
20:14 42.0136 -75.5558 60° Northeast 493 567 37,000  Level Boston Center
20:15 42.0803 -75.3997 60° Northeast 488 562 37,000  Level Boston Center
20:16 42.1469 -75.2461 60° Northeast 481 554 37,000  Level Boston Center
20:17 42.2131 -75.0947 59° Northeast 470 541 37,000 -689 Level Boston Center
20:18 42.2792 -74.9319 61° Northeast 475 547 35,600 -1,750 Descending Boston Center
20:19 42.3472 -74.7744 60° Northeast 475 547 33,500 -2,150 Descending Boston Center
20:20 42.4150 -74.6111 61° Northeast 475 547 31,300 -2,200 Descending Boston Center
20:21 42.4847 -74.4475 60° Northeast 486 559 29,100 -1,169 Descending Boston Center
20:22 42.5458 -74.2972 61° Northeast 497 572 29,000 -550 Descending Boston Center
20:23 42.5819 -74.1178 75° East 497 572 28,000 -1,289 Descending Boston Center
20:24 42.6181 -73.9186 76° East 497 572 26,400 -1,672 Descending Boston Center
20:25 42.6472 -73.7442 77° East 484 557 24,600 -1,686 Descending Boston Center
20:26 42.6697 -73.5894 79° East 476 548 23,000 -1,664 Descending Boston Center
20:27 42.6881 -73.4203 82° East 463 533 21,300 -1,424 Descending Boston Center
20:28 42.7039 -73.2567 82° East 453 521 20,200 -1,050 Descending Boston Center
20:29 42.7217 -73.0900 82° East 448 516 19,200 -590 Descending Boston Center
20:30 42.7369 -72.9264 83° East 443 510 19,000 -446 Descending Boston Center
20:31 42.7542 -72.7483 82° East 438 504 18,300 -1,373 Descending Boston Center
20:32 42.7672 -72.5900 84° East 438 504 16,300 -2,067 Descending Boston Center
20:33 42.7817 -72.4372 83° East 418 481 14,200 -2,000 Descending Boston Center
20:34 42.7942 -72.2872 83° East 406 467 12,300 -1,785 Descending Boston Center
20:35 42.8044 -72.1431 84° East 392 451 10,600 -1,230 Descending Boston Center
20:36 42.8289 -72.0211 75° East 351 404 9,800 -1,008 Descending Boston Center
20:37 42.8806 -71.9331 51° Northeast 305 351 8,600 -1,513 Descending Boston Center
20:38 42.9325 -71.8475 50° Northeast 284 327 6,800 -1,765 Descending Boston Center
20:39 42.9778 -71.7589 55° Northeast 284 327 5,100 -1,500 Descending Boston Center
20:40 42.9981 -71.6567 75° East 274 315 3,800 -1,091 Descending Boston Center
20:41 43.0222 -71.5739 68° East 256 295 2,900 -843 Descending Boston Center
20:42 43.0261 -71.5086 85° East 189 217 2,100 -750 Descending Boston Center
20:43 43.0006 -71.4719 134° Southeast 137 158 1,400 -706 Descending Boston Center
20:44 42.9650 -71.4556 161° South 126 145 700 -555 Descending Boston Center
20:45 42.9336 -71.4306 150° Southeast 131 151 300 4,116 Descending Boston Center
20:46 42.9022 -71.4111 156° South 131 151 9,000 4,387 Climbing Boston Center
20:47 42.8708 -71.3892 153° Southeast 131 151 9,000  Level Boston Center
20:48 42.8392 -71.3697 156° South 131 151 9,000  Level Boston Center
20:50 42.9167 -71.4333 316° Northwest  Level FlightAware Approximate